Time;durP1;ratioP1;P1;durP2;ratioP2;P2;SDS_P1;SDS_P2;PMS_P1;PMS_P2;Temp;Humidity;BMP_temperature;BMP_pressure;BME280_temperature;BME280_humidity;BME280_pressure;Samples;Min_cycle;Max_cycle;Signal;HPM_P1;HPM_P2
2022/05/01 00:02:05;;;;;;;11.95;5.43;;;6.80;99.90;;;;;;5010890;28;20533;-70
2022/05/01 00:04:31;;;;;;;21.17;6.95;;;6.80;99.90;;;;;;5011047;28;20517;-68
2022/05/01 00:06:57;;;;;;;10.27;5.57;;;6.70;99.90;;;;;;5010624;28;20041;-69
2022/05/01 00:09:22;;;;;;;16.95;7.22;;;6.70;99.90;;;;;;5011539;28;20446;-69
2022/05/01 00:11:49;;;;;;;11.77;5.60;;;6.70;99.90;;;;;;5011461;28;20064;-70
2022/05/01 00:14:14;;;;;;;13.18;5.95;;;6.60;99.90;;;;;;5010681;28;20076;-70
2022/05/01 00:16:41;;;;;;;15.30;6.60;;;6.60;99.90;;;;;;5011057;28;20042;-69
2022/05/01 00:19:10;;;;;;;15.23;5.80;;;6.60;99.90;;;;;;5010771;28;20034;-69
2022/05/01 00:21:38;;;;;;;14.10;7.15;;;6.50;99.90;;;;;;5010961;28;20418;-70
2022/05/01 00:24:05;;;;;;;14.07;6.13;;;6.60;99.90;;;;;;5010383;28;20038;-69
2022/05/01 00:26:31;;;;;;;15.05;6.28;;;6.50;99.90;;;;;;5011148;28;20069;-69
2022/05/01 00:28:56;;;;;;;11.90;6.15;;;6.50;99.90;;;;;;5010575;28;20491;-70
2022/05/01 00:31:22;;;;;;;12.55;6.20;;;6.40;99.90;;;;;;5011277;28;20046;-69
2022/05/01 00:36:32;;;;;;;11.82;6.00;;;6.40;99.90;;;;;;5007648;28;20052;-70
2022/05/01 00:39:02;;;;;;;17.77;7.05;;;6.30;99.90;;;;;;4991984;28;20030;-70
2022/05/01 00:41:31;;;;;;;13.20;6.05;;;6.30;99.90;;;;;;4993327;28;20037;-69
2022/05/01 00:44:11;;;;;;;11.13;5.93;;;6.30;99.90;;;;;;4992550;28;20045;-70
2022/05/01 00:46:42;;;;;;;18.77;7.65;;;6.30;99.90;;;;;;5015166;28;20052;-70
2022/05/01 00:49:10;;;;;;;14.00;7.25;;;6.20;99.90;;;;;;4999726;28;20085;-70
2022/05/01 00:51:43;;;;;;;14.50;7.07;;;6.20;99.90;;;;;;5018484;28;20033;-70
2022/05/01 00:54:09;;;;;;;13.52;7.00;;;6.20;99.90;;;;;;5011211;28;20120;-70
2022/05/01 00:56:41;;;;;;;14.88;6.60;;;6.10;99.90;;;;;;5010864;28;20185;-70
2022/05/01 00:59:08;;;;;;;13.63;6.40;;;6.10;99.90;;;;;;4992506;28;20441;-69
2022/05/01 01:01:35;;;;;;;12.02;6.40;;;6.10;99.90;;;;;;5010377;28;20492;-69
2022/05/01 01:04:00;;;;;;;14.13;6.22;;;6.00;99.90;;;;;;4991924;28;20436;-69
2022/05/01 01:06:26;;;;;;;21.92;8.90;;;6.00;99.90;;;;;;4992850;28;20042;-70
2022/05/01 01:08:52;;;;;;;16.75;7.63;;;5.90;99.90;;;;;;4992386;28;20030;-69
2022/05/01 01:11:18;;;;;;;18.70;7.88;;;5.90;99.90;;;;;;5010165;28;20036;-69
2022/05/01 01:13:47;;;;;;;17.88;7.53;;;5.90;99.90;;;;;;5009807;28;20030;-70
2022/05/01 01:16:12;;;;;;;20.90;7.53;;;5.90;99.90;;;;;;5009517;28;20497;-69
2022/05/01 01:18:39;;;;;;;20.52;8.10;;;5.90;99.90;;;;;;5009785;28;20117;-70
2022/05/01 01:21:11;;;;;;;15.27;7.10;;;5.90;99.90;;;;;;4991478;28;20040;-69
2022/05/01 01:23:39;;;;;;;19.70;7.90;;;5.90;99.90;;;;;;5009153;28;20034;-70
2022/05/01 01:26:06;;;;;;;16.88;7.75;;;5.80;99.90;;;;;;5009267;28;20038;-69
2022/05/01 01:28:35;;;;;;;21.40;7.97;;;5.80;99.90;;;;;;5009665;28;20560;-70
2022/05/01 01:33:51;;;;;;;19.05;7.97;;;5.80;99.90;;;;;;5008896;28;20100;-69
2022/05/01 01:36:20;;;;;;;17.65;8.40;;;5.80;99.90;;;;;;4991647;28;20034;-70
2022/05/01 01:38:45;;;;;;;18.33;8.85;;;5.80;99.90;;;;;;4992075;28;20038;-69
2022/05/01 01:41:13;;;;;;;17.40;7.43;;;5.70;99.90;;;;;;4991549;28;20033;-69
2022/05/01 01:43:42;;;;;;;21.17;8.45;;;5.70;99.90;;;;;;5009402;28;20026;-69
2022/05/01 01:46:08;;;;;;;23.90;8.02;;;5.60;99.90;;;;;;5009274;28;20521;-69
2022/05/01 01:48:33;;;;;;;17.63;7.70;;;5.60;99.90;;;;;;4991021;28;20034;-69
2022/05/01 01:51:02;;;;;;;19.50;8.05;;;5.60;99.90;;;;;;4992919;28;20030;-69
2022/05/01 01:53:29;;;;;;;20.75;9.15;;;5.50;99.90;;;;;;5009860;28;20034;-70
2022/05/01 01:55:57;;;;;;;16.52;7.78;;;5.50;99.90;;;;;;5009799;28;20064;-69
2022/05/01 01:58:23;;;;;;;16.50;7.95;;;5.40;99.90;;;;;;5010633;28;20120;-67
2022/05/01 02:00:48;;;;;;;18.90;9.20;;;5.40;99.90;;;;;;5010927;28;20121;-69
2022/05/01 02:03:14;;;;;;;18.33;8.40;;;5.40;99.90;;;;;;5010219;28;20057;-70
2022/05/01 02:05:39;;;;;;;17.20;8.48;;;5.40;99.90;;;;;;4992277;28;20068;-70
2022/05/01 02:08:05;;;;;;;18.52;7.90;;;5.40;99.90;;;;;;5010086;28;20034;-69
2022/05/01 02:10:32;;;;;;;22.60;11.10;;;5.40;99.90;;;;;;4992908;28;20034;-69
2022/05/01 02:13:01;;;;;;;16.83;8.13;;;5.30;99.90;;;;;;5009301;28;20116;-69
2022/05/01 02:15:33;;;;;;;17.05;8.32;;;5.30;99.90;;;;;;4991572;28;20046;-70
2022/05/01 02:18:00;;;;;;;16.65;8.02;;;5.30;99.90;;;;;;4991426;28;20088;-70
2022/05/01 02:20:27;;;;;;;19.20;9.20;;;5.20;99.90;;;;;;4991813;28;20375;-68
2022/05/01 02:22:53;;;;;;;16.38;8.73;;;5.20;99.90;;;;;;5009204;28;20068;-68
2022/05/01 02:25:22;;;;;;;18.25;8.48;;;5.20;99.90;;;;;;5009147;28;20026;-69
2022/05/01 02:27:48;;;;;;;15.15;8.30;;;5.10;99.90;;;;;;4991406;28;20037;-70
2022/05/01 02:30:14;;;;;;;18.13;7.80;;;5.00;99.90;;;;;;5008973;28;20394;-68
2022/05/01 02:32:40;;;;;;;15.93;8.50;;;5.00;99.90;;;;;;5009218;28;20414;-69
2022/05/01 02:35:08;;;;;;;16.08;8.20;;;5.00;99.90;;;;;;4990855;28;20117;-69
2022/05/01 02:37:35;;;;;;;21.90;8.35;;;4.90;99.90;;;;;;5009271;28;20041;-69
2022/05/01 02:40:01;;;;;;;17.27;9.43;;;4.90;99.90;;;;;;4989912;28;20141;-69
2022/05/01 02:42:27;;;;;;;17.65;9.23;;;4.90;99.90;;;;;;4991285;28;20049;-69
2022/05/01 02:44:52;;;;;;;18.80;8.65;;;4.90;99.90;;;;;;5009076;28;20034;-69
2022/05/01 02:47:18;;;;;;;17.30;8.25;;;4.90;99.90;;;;;;5008723;28;20057;-69
2022/05/01 02:49:44;;;;;;;19.95;9.27;;;4.80;99.90;;;;;;5009241;28;20401;-69
2022/05/01 02:52:10;;;;;;;17.75;8.52;;;4.80;99.90;;;;;;5008620;28;20038;-70
2022/05/01 02:54:35;;;;;;;19.98;9.82;;;4.80;99.90;;;;;;5008065;28;20041;-70
2022/05/01 02:57:01;;;;;;;17.77;8.05;;;4.80;99.90;;;;;;5008605;28;20038;-69
2022/05/01 02:59:27;;;;;;;21.58;9.68;;;4.70;99.90;;;;;;5009508;28;20042;-69
2022/05/01 03:01:55;;;;;;;21.73;8.77;;;4.80;99.90;;;;;;4994678;28;20133;-69
2022/05/01 03:04:21;;;;;;;19.10;8.45;;;4.70;99.90;;;;;;4994361;28;20061;-69
2022/05/01 03:06:47;;;;;;;19.65;8.45;;;4.70;99.90;;;;;;5012307;28;20440;-69
2022/05/01 03:09:12;;;;;;;17.42;8.43;;;4.60;99.90;;;;;;5012067;28;20040;-69
2022/05/01 03:11:38;;;;;;;18.48;8.77;;;4.60;99.90;;;;;;4994676;28;20429;-69
2022/05/01 03:14:04;;;;;;;21.73;9.13;;;4.70;99.90;;;;;;5011623;28;20038;-69
2022/05/01 03:16:30;;;;;;;19.42;8.80;;;4.60;99.90;;;;;;4994822;28;20042;-69
2022/05/01 03:24:26;;;;;;;16.50;8.18;;;4.50;99.90;;;;;;5009658;28;20398;-69
2022/05/01 03:26:51;;;;;;;21.15;10.23;;;4.50;99.90;;;;;;4994568;28;20026;-69
2022/05/01 03:29:18;;;;;;;17.60;9.15;;;4.50;99.90;;;;;;4993940;28;20034;-69
2022/05/01 03:31:46;;;;;;;17.50;9.15;;;4.40;99.90;;;;;;4994441;28;20060;-69
2022/05/01 03:34:13;;;;;;;23.17;9.63;;;4.40;99.90;;;;;;5011093;28;20057;-70
2022/05/01 03:36:39;;;;;;;19.70;9.55;;;4.40;99.90;;;;;;5000917;23;20050;-68
2022/05/01 03:39:05;;;;;;;21.75;8.95;;;4.40;99.90;;;;;;4990450;28;20066;-68
2022/05/01 03:41:32;;;;;;;19.60;8.57;;;4.40;99.90;;;;;;4984545;28;20048;-69
2022/05/01 03:43:58;;;;;;;19.13;8.88;;;4.30;99.90;;;;;;4981812;28;20064;-67
2022/05/01 03:46:24;;;;;;;22.15;8.85;;;4.30;99.90;;;;;;4985407;28;20093;-68
2022/05/01 03:48:50;;;;;;;20.55;8.88;;;4.30;99.90;;;;;;4981369;28;20039;-68
2022/05/01 03:51:16;;;;;;;18.50;8.35;;;4.30;99.90;;;;;;4984623;28;20402;-70
2022/05/01 03:53:42;;;;;;;19.00;9.90;;;4.30;99.90;;;;;;4974332;28;20074;-68
2022/05/01 03:56:10;;;;;;;21.45;9.13;;;4.30;99.90;;;;;;4974285;28;20062;-68
2022/05/01 03:58:36;;;;;;;18.08;8.70;;;4.20;99.90;;;;;;4978654;28;20035;-71
2022/05/01 04:01:02;;;;;;;17.67;7.90;;;4.30;99.90;;;;;;4981081;28;20045;-69
2022/05/01 04:03:28;;;;;;;16.33;7.93;;;4.20;99.90;;;;;;4984075;28;20085;-68
2022/05/01 04:05:54;;;;;;;17.42;8.88;;;4.20;99.90;;;;;;4980342;28;20030;-70
2022/05/01 04:08:20;;;;;;;21.20;9.10;;;4.20;99.90;;;;;;4989454;28;20027;-69
2022/05/01 04:10:46;;;;;;;17.13;8.57;;;4.20;99.90;;;;;;4980175;28;20039;-70
2022/05/01 04:13:13;;;;;;;17.83;8.88;;;4.10;99.90;;;;;;4983516;28;20038;-68
2022/05/01 04:15:39;;;;;;;21.67;8.15;;;4.20;99.90;;;;;;4977234;28;20077;-70
2022/05/01 04:18:06;;;;;;;17.73;8.57;;;4.10;99.90;;;;;;4985799;28;20413;-68
2022/05/01 04:20:38;;;;;;;16.92;8.75;;;4.20;99.90;;;;;;4975512;28;20037;-68
2022/05/01 04:23:08;;;;;;;17.67;9.10;;;4.10;99.90;;;;;;4978209;28;20130;-68
2022/05/01 04:25:34;;;;;;;19.65;9.27;;;4.10;99.90;;;;;;4985929;28;20084;-68
2022/05/01 04:28:08;;;;;;;20.85;8.73;;;4.20;99.90;;;;;;4977669;28;20093;-68
2022/05/01 04:30:34;;;;;;;18.73;8.85;;;4.20;99.90;;;;;;4989872;28;20049;-72
2022/05/01 04:33:14;;;;;;;18.00;7.80;;;4.20;99.90;;;;;;4978488;28;20054;-68
2022/05/01 04:35:42;;;;;;;15.67;7.67;;;4.20;99.90;;;;;;4978546;28;20046;-68
2022/05/01 04:38:13;;;;;;;17.73;8.18;;;4.20;99.90;;;;;;4983482;28;20262;-68
2022/05/01 04:40:42;;;;;;;16.10;8.10;;;4.20;99.90;;;;;;4981833;28;20561;-68
2022/05/01 04:43:09;;;;;;;16.48;8.45;;;4.20;99.90;;;;;;4985423;28;20027;-67
2022/05/01 04:45:37;;;;;;;19.67;9.30;;;4.30;99.90;;;;;;4980513;28;20038;-71
2022/05/01 04:48:04;;;;;;;18.55;8.70;;;4.30;99.90;;;;;;4978169;28;20065;-68
2022/05/01 04:50:30;;;;;;;18.98;7.57;;;4.30;99.90;;;;;;4971890;28;20027;-68
2022/05/01 04:52:57;;;;;;;15.27;8.75;;;4.40;99.90;;;;;;4983345;28;20034;-68
2022/05/01 04:55:23;;;;;;;17.88;8.40;;;4.50;99.90;;;;;;4978518;28;20101;-67
2022/05/01 04:57:49;;;;;;;16.67;8.27;;;4.50;99.90;;;;;;4972946;28;20042;-67
2022/05/01 05:00:18;;;;;;;14.63;8.10;;;4.60;99.90;;;;;;4970135;28;20022;-68
2022/05/01 05:02:47;;;;;;;13.70;7.20;;;4.60;99.90;;;;;;4977090;28;20038;-68
2022/05/01 05:05:12;;;;;;;14.88;7.15;;;4.70;99.90;;;;;;4974463;28;20376;-69
2022/05/01 05:07:39;;;;;;;13.68;7.28;;;4.80;99.90;;;;;;4981508;28;20030;-68
2022/05/01 05:10:08;;;;;;;15.13;8.23;;;4.80;99.90;;;;;;4981480;28;20040;-68
2022/05/01 05:12:35;;;;;;;19.05;9.07;;;4.90;99.90;;;;;;4977641;28;20042;-69
2022/05/01 05:15:03;;;;;;;17.40;8.27;;;5.00;99.90;;;;;;4977823;28;20130;-68
2022/05/01 05:17:32;;;;;;;12.85;7.22;;;5.10;99.90;;;;;;4978195;28;20181;-68
2022/05/01 05:19:59;;;;;;;13.80;6.70;;;5.30;99.90;;;;;;4980123;28;20046;-68
2022/05/01 05:22:24;;;;;;;15.75;8.23;;;5.40;99.90;;;;;;4984798;28;20043;-68
2022/05/01 05:24:50;;;;;;;18.67;7.85;;;5.60;99.90;;;;;;4975521;28;20039;-68
2022/05/01 05:27:20;;;;;;;14.40;7.53;;;5.70;99.90;;;;;;4978477;28;20030;-68
2022/05/01 05:29:46;;;;;;;12.40;7.18;;;5.90;99.90;;;;;;4975378;28;20042;-68
2022/05/01 05:32:11;;;;;;;15.15;7.22;;;6.00;99.90;;;;;;4979584;28;20062;-68
2022/05/01 05:34:37;;;;;;;17.05;7.90;;;6.20;99.90;;;;;;4981227;28;20077;-68
2022/05/01 05:37:03;;;;;;;13.80;7.07;;;6.50;99.90;;;;;;4976976;28;20054;-68
2022/05/01 05:39:28;;;;;;;15.77;8.63;;;6.60;99.90;;;;;;4975605;28;20034;-71
2022/05/01 05:41:54;;;;;;;14.48;7.32;;;6.90;99.90;;;;;;4975393;28;20097;-71
2022/05/01 05:44:20;;;;;;;21.75;7.93;;;7.10;99.90;;;;;;4973641;28;20035;-69
2022/05/01 05:46:46;;;;;;;16.17;7.70;;;7.40;99.90;;;;;;4972909;28;20410;-69
2022/05/01 05:49:11;;;;;;;14.48;7.22;;;7.60;99.90;;;;;;4972601;28;20038;-69
2022/05/01 05:51:37;;;;;;;14.48;7.00;;;8.00;99.90;;;;;;4980031;28;20026;-68
2022/05/01 05:54:03;;;;;;;12.77;6.63;;;8.60;99.90;;;;;;4976239;28;20080;-69
2022/05/01 05:56:28;;;;;;;10.77;6.00;;;9.40;99.90;;;;;;4971967;28;20043;-68
2022/05/01 05:58:56;;;;;;;13.35;6.55;;;10.10;99.90;;;;;;4981612;28;20398;-70
2022/05/01 06:01:21;;;;;;;10.07;4.88;;;11.00;99.90;;;;;;4977569;28;20062;-70
2022/05/01 06:03:47;;;;;;;8.63;4.70;;;11.70;99.90;;;;;;4978499;28;20047;-70
2022/05/01 06:06:14;;;;;;;10.82;4.75;;;12.50;99.90;;;;;;4968621;28;20507;-69
2022/05/01 06:08:39;;;;;;;7.38;3.80;;;12.90;99.90;;;;;;4981202;28;20035;-69
2022/05/01 06:11:05;;;;;;;5.75;4.00;;;13.00;99.90;;;;;;4979691;28;20077;-69
2022/05/01 06:13:31;;;;;;;5.75;3.38;;;13.30;99.90;;;;;;4979726;28;20035;-72
2022/05/01 06:15:57;;;;;;;10.40;4.45;;;13.30;99.90;;;;;;4976402;28;20042;-69
2022/05/01 06:18:23;;;;;;;7.85;4.47;;;13.40;99.90;;;;;;4976541;28;20642;-69
2022/05/01 06:20:49;;;;;;;8.73;4.18;;;13.50;99.90;;;;;;4976611;28;20368;-71
2022/05/01 06:23:15;;;;;;;10.48;4.35;;;13.60;99.90;;;;;;4973299;28;20039;-73
2022/05/01 06:25:46;;;;;;;8.75;3.90;;;13.60;99.90;;;;;;4977415;28;20029;-70
2022/05/01 06:28:15;;;;;;;6.53;3.50;;;13.70;99.90;;;;;;4976501;28;20034;-68
2022/05/01 06:30:46;;;;;;;6.32;3.60;;;13.90;99.90;;;;;;4969771;28;20031;-70
2022/05/01 06:33:14;;;;;;;8.30;3.78;;;13.70;99.90;;;;;;4971820;28;20035;-70
2022/05/01 06:35:41;;;;;;;7.28;3.33;;;14.00;99.90;;;;;;4975627;28;20145;-69
2022/05/01 06:38:12;;;;;;;6.70;3.70;;;14.20;99.90;;;;;;4975566;28;20030;-69
2022/05/01 06:40:38;;;;;;;8.00;3.42;;;14.10;99.90;;;;;;4976595;28;20035;-69
2022/05/01 06:43:05;;;;;;;6.93;3.30;;;14.00;99.90;;;;;;4980072;28;20537;-71
2022/05/01 06:45:31;;;;;;;8.82;3.67;;;14.00;99.90;;;;;;4978386;28;20502;-69
2022/05/01 06:47:57;;;;;;;7.63;3.03;;;13.80;99.90;;;;;;4983043;28;20058;-70
2022/05/01 06:50:22;;;;;;;6.78;3.20;;;13.80;99.90;;;;;;4983481;28;20153;-69
2022/05/01 06:52:48;;;;;;;5.15;3.20;;;13.50;99.90;;;;;;4980307;28;20042;-69
2022/05/01 06:55:16;;;;;;;8.02;3.97;;;13.30;99.90;;;;;;4979585;28;20458;-69
2022/05/01 06:57:41;;;;;;;7.80;3.33;;;13.30;99.90;;;;;;4979823;28;20518;-70
2022/05/01 07:00:08;;;;;;;6.32;3.75;;;13.60;99.90;;;;;;4974811;28;20093;-71
2022/05/01 07:02:33;;;;;;;10.35;4.53;;;13.90;99.90;;;;;;4977868;28;20047;-69
2022/05/01 07:04:59;;;;;;;9.55;3.80;;;14.30;99.90;;;;;;4978010;28;20046;-70
2022/05/01 07:07:25;;;;;;;8.25;3.15;;;14.70;99.90;;;;;;4982940;28;20125;-72
2022/05/01 07:09:50;;;;;;;7.80;3.75;;;15.20;99.90;;;;;;4981655;28;20034;-70
2022/05/01 07:12:16;;;;;;;5.55;3.30;;;15.50;99.90;;;;;;4977531;28;20062;-69
2022/05/01 07:14:43;;;;;;;5.82;3.88;;;16.00;99.90;;;;;;4972922;28;20035;-70
2022/05/01 07:17:09;;;;;;;6.30;3.28;;;16.50;99.90;;;;;;4972526;28;20089;-70
2022/05/01 07:19:35;;;;;;;8.10;3.22;;;16.40;99.90;;;;;;4962846;28;20039;-69
2022/05/01 07:22:01;;;;;;;11.98;4.20;;;16.20;99.90;;;;;;4966710;28;20518;-70
2022/05/01 07:24:26;;;;;;;5.80;3.10;;;16.10;99.90;;;;;;4974504;28;20442;-70
2022/05/01 07:26:52;;;;;;;7.95;3.60;;;16.30;99.90;;;;;;4965249;28;20193;-69
2022/05/01 07:29:17;;;;;;;6.72;3.20;;;16.50;99.90;;;;;;4970296;28;20031;-69
2022/05/01 07:31:43;;;;;;;7.38;2.80;;;16.80;99.90;;;;;;4969556;28;20043;-73
2022/05/01 07:34:10;;;;;;;6.85;3.60;;;17.00;99.80;;;;;;4971498;28;20165;-70
2022/05/01 07:36:36;;;;;;;6.80;3.40;;;17.00;97.70;;;;;;4972622;28;20098;-70
2022/05/01 07:39:02;;;;;;;5.60;3.28;;;17.00;97.90;;;;;;4974793;28;20108;-69
2022/05/01 07:41:28;;;;;;;6.85;2.67;;;17.20;97.50;;;;;;4973200;28;20047;-70
2022/05/01 07:43:55;;;;;;;5.80;3.25;;;17.40;97.70;;;;;;4968529;28;20057;-70
2022/05/01 07:46:22;;;;;;;9.93;3.08;;;17.80;97.30;;;;;;4969575;28;20035;-69
2022/05/01 07:48:48;;;;;;;5.88;3.67;;;17.40;95.50;;;;;;4974379;28;20082;-71
2022/05/01 07:51:17;;;;;;;5.80;3.10;;;17.00;95.60;;;;;;4971836;28;20035;-69
2022/05/01 07:53:42;;;;;;;7.13;2.95;;;16.40;96.00;;;;;;4970998;28;20101;-72
2022/05/01 07:56:08;;;;;;;5.25;2.92;;;16.20;96.40;;;;;;4970462;28;20400;-69
2022/05/01 07:58:34;;;;;;;5.32;2.60;;;16.10;97.30;;;;;;4970168;28;20039;-69
2022/05/01 08:01:01;;;;;;;5.53;2.65;;;16.10;97.20;;;;;;4970697;28;20098;-69
2022/05/01 08:06:13;;;;;;;5.53;2.60;;;15.90;97.10;;;;;;4969310;28;20537;-69
2022/05/01 08:08:39;;;;;;;4.57;2.65;;;15.80;96.60;;;;;;4969901;28;20057;-71
2022/05/01 08:11:06;;;;;;;5.68;3.08;;;15.90;97.40;;;;;;4966487;28;20042;-69
2022/05/01 08:13:32;;;;;;;4.35;2.28;;;15.90;96.30;;;;;;4971795;28;20066;-70
2022/05/01 08:15:58;;;;;;;8.13;2.97;;;16.00;97.30;;;;;;4973738;28;20042;-71
2022/05/01 08:21:08;;;;;;;6.43;3.05;;;16.20;96.10;;;;;;4969014;28;20042;-69
2022/05/01 08:23:34;;;;;;;6.85;3.10;;;16.20;95.30;;;;;;4972406;28;20027;-70
2022/05/01 08:26:03;;;;;;;4.85;2.55;;;15.80;96.20;;;;;;4967363;28;20406;-70
2022/05/01 08:28:32;;;;;;;5.22;2.80;;;16.00;96.40;;;;;;4972303;28;20047;-70
2022/05/01 08:30:58;;;;;;;7.57;3.00;;;15.90;95.80;;;;;;4967982;28;20035;-69
2022/05/01 08:33:24;;;;;;;4.50;2.70;;;16.00;95.70;;;;;;4970838;28;20051;-69
2022/05/01 08:35:50;;;;;;;5.07;2.42;;;16.30;95.80;;;;;;4966487;28;20113;-70
2022/05/01 08:38:16;;;;;;;7.50;2.50;;;16.50;94.80;;;;;;4968313;28;21044;-69
2022/05/01 08:40:47;;;;;;;10.25;2.38;;;16.40;95.00;;;;;;4968691;28;20090;-70
2022/05/01 08:43:15;;;;;;;5.78;2.08;;;16.80;94.20;;;;;;4968832;28;20039;-69
2022/05/01 08:46:36;;;;;;;7.55;2.40;;;16.90;93.50;;;;;;4969660;28;20483;-69
2022/05/01 08:49:07;;;;;;;5.80;2.22;;;16.80;93.00;;;;;;4867211;29;20048;-69
2022/05/01 08:51:37;;;;;;;6.65;1.88;;;16.80;93.40;;;;;;4947233;28;20026;-68
2022/05/01 08:54:11;;;;;;;6.90;3.58;;;16.90;92.30;;;;;;4964002;28;20038;-70
2022/05/01 08:56:41;;;;;;;4.75;1.55;;;16.70;92.90;;;;;;4969510;28;20082;-70
2022/05/01 08:59:09;;;;;;;2.53;1.50;;;16.30;91.00;;;;;;4971087;28;20039;-69
2022/05/01 09:01:36;;;;;;;6.10;1.92;;;16.00;91.20;;;;;;4968791;28;20566;-70
2022/05/01 09:04:03;;;;;;;4.13;1.80;;;16.10;91.50;;;;;;4965577;28;20035;-71
2022/05/01 09:06:29;;;;;;;3.25;1.65;;;16.10;91.40;;;;;;4969145;28;20034;-69
2022/05/01 09:08:57;;;;;;;4.18;1.77;;;16.50;90.90;;;;;;4969165;28;20467;-67
2022/05/01 09:14:07;;;;;;;4.28;1.65;;;16.20;90.10;;;;;;4967032;28;20033;-68
2022/05/01 09:16:37;;;;;;;3.20;1.50;;;16.20;88.80;;;;;;4971044;28;20042;-69
2022/05/01 09:19:03;;;;;;;4.50;1.80;;;16.20;89.10;;;;;;4970115;28;20035;-69
2022/05/01 09:21:53;;;;;;;4.28;1.50;;;16.40;88.50;;;;;;4967896;28;20045;-68
2022/05/01 09:24:28;;;;;;;3.53;1.63;;;16.20;88.10;;;;;;4971293;28;20031;-68
2022/05/01 09:26:55;;;;;;;2.75;1.30;;;16.10;90.20;;;;;;4968509;28;20345;-71
2022/05/01 09:29:26;;;;;;;3.55;1.95;;;16.10;91.60;;;;;;4973472;28;20034;-71
2022/05/01 09:31:52;;;;;;;;;;;16.20;90.50;;;;;;4967428;28;20467;-69
2022/05/01 09:34:26;;;;;;;3.30;1.73;;;16.20;90.80;;;;;;4970265;28;19960;-69
2022/05/01 09:36:52;;;;;;;3.35;1.13;;;16.20;87.00;;;;;;4925639;28;1083112;-69
2022/05/01 09:39:27;;;;;;;3.75;1.50;;;16.10;86.90;;;;;;4971458;28;20041;-68
2022/05/01 09:41:54;;;;;;;3.00;1.40;;;16.00;86.40;;;;;;4968780;28;20039;-65
2022/05/01 09:44:21;;;;;;;3.90;1.58;;;15.90;85.80;;;;;;4974786;28;20053;-71
2022/05/01 09:46:49;;;;;;;1.85;1.10;;;15.80;88.00;;;;;;4977147;28;20080;-69
2022/05/01 09:49:16;;;;;;;2.60;1.02;;;16.10;88.00;;;;;;4976636;28;20049;-69
2022/05/01 09:51:47;;;;;;;4.32;1.05;;;16.30;83.10;;;;;;4978058;28;20524;-69
2022/05/01 09:54:24;;;;;;;4.13;1.67;;;16.40;83.20;;;;;;4975880;28;20103;-71
2022/05/01 09:56:54;;;;;;;5.72;1.27;;;16.30;86.80;;;;;;4971630;28;20034;-69
2022/05/01 09:59:21;;;;;;;;;;;16.20;87.20;;;;;;4976832;28;20054;-70
2022/05/01 10:02:03;;;;;;;3.42;1.42;;;16.20;83.80;;;;;;4972777;28;19968;-70
2022/05/01 10:04:34;;;;;;;3.70;1.88;;;16.30;85.60;;;;;;4974118;28;20475;-68
2022/05/01 10:07:01;;;;;;;2.22;1.08;;;16.50;86.80;;;;;;4978253;28;20478;-69
2022/05/01 10:09:28;;;;;;;2.50;1.02;;;16.80;82.50;;;;;;4977637;28;20049;-69
2022/05/01 10:11:59;;;;;;;3.65;1.45;;;16.70;80.40;;;;;;4982004;28;20875;-69
2022/05/01 10:14:26;;;;;;;3.25;1.15;;;17.00;79.10;;;;;;4979655;28;20318;-69
2022/05/01 10:16:54;;;;;;;3.15;1.88;;;16.90;78.60;;;;;;4983245;28;20046;-69
2022/05/01 10:19:20;;;;;;;16.40;3.55;;;16.90;79.70;;;;;;4978280;28;20392;-70
2022/05/01 10:21:48;;;;;;;5.75;1.42;;;17.10;82.40;;;;;;4984098;28;20113;-70
2022/05/01 10:24:15;;;;;;;2.42;1.42;;;17.10;77.60;;;;;;4978847;28;20035;-67
2022/05/01 10:26:57;;;;;;;5.20;1.02;;;17.20;78.70;;;;;;4983208;28;20094;-71
2022/05/01 10:29:22;;;;;;;2.95;1.23;;;17.20;79.10;;;;;;4975556;28;20042;-68
2022/05/01 10:32:21;;;;;;;2.40;1.63;;;17.10;79.90;;;;;;4982266;28;20038;-69
2022/05/01 10:35:23;;;;;;;3.15;1.10;;;17.10;79.50;;;;;;4975930;28;20035;-70
2022/05/01 10:38:10;;;;;;;3.03;1.10;;;17.10;83.10;;;;;;4977337;28;20084;-68
2022/05/01 10:40:58;;;;;;;2.83;1.35;;;17.20;80.70;;;;;;4976170;28;20510;-70
2022/05/01 10:43:31;;;;;;;3.22;1.67;;;17.30;79.30;;;;;;4964332;28;20125;-68
2022/05/01 10:46:01;;;;;;;4.50;1.30;;;17.20;79.00;;;;;;4974197;28;20042;-68
2022/05/01 10:48:39;;;;;;;2.05;1.35;;;17.20;79.10;;;;;;4966920;28;20534;-70
2022/05/01 10:51:38;;;;;;;4.68;1.50;;;17.10;79.00;;;;;;4969915;28;20058;-68
2022/05/01 10:54:10;;;;;;;4.07;1.83;;;16.90;78.30;;;;;;4971611;28;20510;-68
2022/05/01 10:56:36;;;;;;;2.38;1.30;;;16.80;79.60;;;;;;4976832;28;20054;-73
2022/05/01 10:59:30;;;;;;;4.45;1.55;;;16.90;79.30;;;;;;4971308;28;20687;-69
2022/05/01 11:01:58;;;;;;;2.45;1.35;;;17.10;80.60;;;;;;4969483;28;20042;-70
2022/05/01 11:04:24;;;;;;;2.83;1.48;;;17.10;79.70;;;;;;4975737;28;20035;-69
2022/05/01 11:06:54;;;;;;;2.67;1.20;;;16.90;80.80;;;;;;4979629;28;20117;-69
2022/05/01 11:09:22;;;;;;;4.55;1.77;;;17.10;82.60;;;;;;4983504;28;20046;-69
2022/05/01 11:11:57;;;;;;;4.30;1.50;;;17.00;81.80;;;;;;4974907;28;20158;-69
2022/05/01 11:14:49;;;;;;;3.80;2.10;;;17.10;82.20;;;;;;4968066;28;20103;-68
2022/05/01 11:17:14;;;;;;;4.30;1.50;;;17.10;81.10;;;;;;4972634;28;20050;-67
2022/05/01 11:19:45;;;;;;;4.72;1.35;;;17.00;81.10;;;;;;4973496;28;20042;-69
2022/05/01 11:22:13;;;;;;;4.68;2.20;;;16.90;81.30;;;;;;4974458;28;20044;-71
2022/05/01 11:24:45;;;;;;;4.85;1.50;;;17.00;79.90;;;;;;4969463;28;20078;-68
2022/05/01 11:27:11;;;;;;;4.45;2.55;;;17.10;86.10;;;;;;4973066;28;20461;-69
2022/05/01 11:29:37;;;;;;;6.60;1.73;;;17.40;80.40;;;;;;4972680;28;20533;-70
2022/05/01 11:32:41;;;;;;;2.92;1.35;;;17.20;80.00;;;;;;4970561;28;20495;-68
2022/05/01 11:35:07;;;;;;;3.92;1.50;;;17.20;78.00;;;;;;4974470;28;20149;-69
2022/05/01 11:38:05;;;;;;;4.50;1.90;;;17.30;78.90;;;;;;4968662;28;20523;-68
2022/05/01 11:40:32;;;;;;;4.43;1.90;;;17.40;77.30;;;;;;4970747;28;20138;-69
2022/05/01 11:43:18;;;;;;;5.32;1.65;;;17.40;77.90;;;;;;4967358;28;20039;-69
2022/05/01 11:45:45;;;;;;;4.45;2.08;;;17.30;78.90;;;;;;4967779;28;20038;-68
2022/05/01 11:48:15;;;;;;;5.22;2.10;;;17.10;78.40;;;;;;4968203;28;20035;-71
2022/05/01 11:50:43;;;;;;;4.82;1.65;;;16.80;76.80;;;;;;4965428;28;20054;-70
2022/05/01 11:53:22;;;;;;;4.80;1.83;;;16.60;80.10;;;;;;4969970;28;20033;-72
2022/05/01 12:04:25;;;;;;;3.40;1.70;;;16.60;81.70;;;;;;4972118;28;20124;-68
2022/05/01 12:07:01;;;;;;;3.28;1.63;;;16.80;80.60;;;;;;4970114;28;20031;-68
2022/05/01 12:09:28;;;;;;;3.67;1.60;;;16.90;79.80;;;;;;4970395;28;20101;-70
2022/05/01 12:11:54;;;;;;;5.00;2.00;;;17.00;81.30;;;;;;4972649;28;20023;-68
2022/05/01 12:14:20;;;;;;;3.17;1.90;;;17.00;81.10;;;;;;4968761;28;20031;-68
2022/05/01 12:16:46;;;;;;;3.92;1.83;;;16.90;82.10;;;;;;4970733;28;20043;-68
2022/05/01 12:19:14;;;;;;;3.00;1.50;;;17.00;82.30;;;;;;4971601;28;20035;-68
2022/05/01 12:21:40;;;;;;;6.97;1.80;;;16.90;81.50;;;;;;4967901;28;20035;-68
2022/05/01 12:24:10;;;;;;;5.22;2.42;;;17.00;80.60;;;;;;4970112;28;20047;-70
2022/05/01 12:26:49;;;;;;;2.53;1.48;;;17.20;78.50;;;;;;4975809;28;20038;-68
2022/05/01 12:29:15;;;;;;;3.33;1.45;;;17.20;79.60;;;;;;4976926;28;20033;-67
2022/05/01 12:32:01;;;;;;;4.22;1.67;;;17.20;81.70;;;;;;4979500;28;20034;-70
2022/05/01 12:34:29;;;;;;;3.65;2.15;;;17.20;81.10;;;;;;4974133;28;20883;-67
2022/05/01 12:36:57;;;;;;;3.60;1.92;;;17.40;80.80;;;;;;4980284;28;20834;-68
2022/05/01 12:39:24;;;;;;;3.65;2.08;;;17.40;80.40;;;;;;4980909;28;20042;-69
2022/05/01 12:45:09;;;;;;;4.50;2.10;;;17.40;78.60;;;;;;4973822;28;20084;-68
2022/05/01 12:47:40;;;;;;;2.85;1.60;;;17.30;79.70;;;;;;4969705;28;20044;-70
2022/05/01 12:50:18;;;;;;;2.92;1.55;;;17.40;80.40;;;;;;4979288;28;20043;-70
2022/05/01 12:52:45;;;;;;;6.55;1.83;;;17.40;80.30;;;;;;4972205;28;20080;-70
2022/05/01 12:55:18;;;;;;;2.58;1.40;;;17.40;80.10;;;;;;4975424;28;20035;-68
2022/05/01 12:57:59;;;;;;;2.95;1.67;;;17.50;79.70;;;;;;4973773;28;20070;-68
2022/05/01 13:00:40;;;;;;;2.70;1.33;;;17.60;79.20;;;;;;4976632;28;20042;-68
2022/05/01 13:03:18;;;;;;;3.95;2.05;;;17.60;76.70;;;;;;4974794;28;20038;-70
2022/05/01 13:06:08;;;;;;;4.18;1.50;;;17.50;79.00;;;;;;4977112;28;20858;-68
2022/05/01 13:08:36;;;;;;;2.92;1.30;;;17.40;76.40;;;;;;4982147;28;20560;-67
2022/05/01 13:11:21;;;;;;;3.33;1.63;;;17.20;78.10;;;;;;4985875;28;20085;-68
2022/05/01 13:13:50;;;;;;;2.80;1.48;;;17.00;77.20;;;;;;4967911;28;20042;-69
2022/05/01 13:16:19;;;;;;;5.28;1.83;;;16.70;77.70;;;;;;4976487;28;20073;-74
2022/05/01 13:18:45;;;;;;;3.60;1.45;;;16.60;78.00;;;;;;4968697;28;20035;-69
2022/05/01 13:21:10;;;;;;;4.43;1.73;;;16.60;77.60;;;;;;4977285;28;20161;-68
2022/05/01 13:23:38;;;;;;;2.38;1.35;;;16.50;77.30;;;;;;4983514;28;20106;-68
2022/05/01 13:26:03;;;;;;;6.70;2.05;;;16.50;77.90;;;;;;4984376;28;20038;-72
2022/05/01 13:28:29;;;;;;;4.72;1.73;;;16.60;77.90;;;;;;4980638;28;20047;-69